Time;durP1;ratioP1;P1;durP2;ratioP2;P2;SDS_P1;SDS_P2;PMS_P1;PMS_P2;Temp;Humidity;BMP_temperature;BMP_pressure;BME280_temperature;BME280_humidity;BME280_pressure;Samples;Min_cycle;Max_cycle;Signal;HPM_P1;HPM_P2
2023/10/13 00:02:08;;;;;;;11.70;4.68;;;21.30;99.90;;;;;;5071855;28;20020;-72
2023/10/13 00:04:37;;;;;;;7.35;3.33;;;21.30;99.90;;;;;;5071814;28;20024;-71
2023/10/13 00:07:08;;;;;;;12.93;4.03;;;21.40;99.90;;;;;;5069960;28;20614;-72
2023/10/13 00:09:37;;;;;;;11.05;4.07;;;21.50;99.90;;;;;;5071784;28;20361;-71
2023/10/13 00:12:09;;;;;;;10.57;4.25;;;21.40;99.90;;;;;;5071469;28;20024;-71
2023/10/13 00:14:38;;;;;;;9.50;4.47;;;21.30;99.90;;;;;;5071277;28;20238;-71
2023/10/13 00:17:15;;;;;;;10.80;4.53;;;21.30;99.90;;;;;;5071374;28;20024;-71
2023/10/13 00:19:45;;;;;;;10.65;4.18;;;21.30;99.90;;;;;;5071350;28;20019;-71
2023/10/13 00:22:15;;;;;;;9.40;4.15;;;21.20;99.90;;;;;;5070910;28;20030;-71
2023/10/13 00:24:45;;;;;;;9.65;4.20;;;21.10;99.90;;;;;;5069689;28;20130;-71
2023/10/13 00:27:33;;;;;;;10.52;4.43;;;21.00;99.90;;;;;;5070920;28;20427;-70
2023/10/13 00:30:22;;;;;;;8.88;4.10;;;20.90;99.90;;;;;;5070976;28;20063;-71
2023/10/13 00:32:56;;;;;;;10.27;4.35;;;20.80;99.90;;;;;;5071303;28;20059;-71
2023/10/13 00:35:42;;;;;;;10.23;4.38;;;20.80;99.90;;;;;;5070801;28;20028;-72
2023/10/13 00:38:13;;;;;;;10.05;4.45;;;20.80;99.90;;;;;;5074367;28;20187;-71
2023/10/13 00:40:42;;;;;;;7.88;4.07;;;20.80;99.90;;;;;;5091522;28;20185;-70
2023/10/13 00:45:57;;;;;;;9.55;4.28;;;20.80;99.90;;;;;;5091014;28;20317;-70
2023/10/13 00:48:29;;;;;;;;;;;20.80;99.90;;;;;;5091637;28;20043;-72
2023/10/13 00:51:03;;;;;;;12.02;4.57;;;20.70;99.90;;;;;;5090879;28;20366;-71
2023/10/13 00:53:33;;;;;;;10.80;4.13;;;20.60;99.90;;;;;;5091422;28;20103;-71
2023/10/13 00:56:07;;;;;;;11.35;4.47;;;20.60;99.90;;;;;;5090856;28;20039;-72
2023/10/13 00:58:39;;;;;;;10.00;4.40;;;20.60;99.90;;;;;;5090941;28;20028;-71
2023/10/13 01:01:17;;;;;;;11.25;4.30;;;20.50;99.90;;;;;;5091221;28;20031;-71
2023/10/13 01:03:49;;;;;;;6.32;4.10;;;20.50;99.90;;;;;;5090969;28;20031;-71
2023/10/13 01:06:19;;;;;;;11.63;4.93;;;20.50;99.90;;;;;;5072330;28;20062;-71
2023/10/13 01:08:50;;;;;;;8.68;4.13;;;20.50;99.90;;;;;;5090617;28;20084;-71
2023/10/13 01:11:23;;;;;;;16.63;4.78;;;20.50;99.90;;;;;;5072272;28;20028;-71
2023/10/13 01:13:53;;;;;;;9.13;4.47;;;20.50;99.90;;;;;;5090803;28;20126;-71
2023/10/13 01:16:26;;;;;;;8.13;3.95;;;20.50;99.90;;;;;;5090980;28;20127;-71
2023/10/13 01:18:53;;;;;;;11.27;4.85;;;20.30;99.90;;;;;;5090356;28;20380;-71
2023/10/13 01:21:27;;;;;;;10.10;4.78;;;20.20;99.90;;;;;;5090559;28;20035;-72
2023/10/13 01:23:53;;;;;;;10.18;4.53;;;20.20;99.90;;;;;;5072481;28;20035;-71
2023/10/13 01:26:26;;;;;;;10.68;4.55;;;20.20;99.90;;;;;;5074546;28;20364;-71
2023/10/13 01:28:57;;;;;;;11.75;4.28;;;20.20;99.90;;;;;;5094836;28;20029;-71
2023/10/13 01:31:30;;;;;;;7.63;4.10;;;20.20;99.90;;;;;;5095166;28;20103;-72
2023/10/13 01:33:59;;;;;;;14.52;4.90;;;20.10;99.90;;;;;;5094785;28;20157;-71
2023/10/13 01:36:35;;;;;;;11.60;4.63;;;20.10;99.90;;;;;;5094256;28;20047;-72
2023/10/13 01:39:01;;;;;;;9.27;4.43;;;20.10;99.90;;;;;;5094370;28;20175;-71
2023/10/13 01:41:29;;;;;;;10.85;5.10;;;20.10;99.90;;;;;;5094578;28;20082;-72
2023/10/13 01:43:57;;;;;;;12.23;5.05;;;20.10;99.90;;;;;;5076000;28;20052;-72
2023/10/13 01:46:23;;;;;;;19.23;5.57;;;20.10;99.90;;;;;;5094350;28;20020;-71
2023/10/13 01:48:49;;;;;;;11.27;4.88;;;20.10;99.90;;;;;;5094649;28;20045;-71
2023/10/13 01:51:15;;;;;;;11.18;5.03;;;20.10;99.90;;;;;;5094169;28;20035;-72
2023/10/13 01:53:41;;;;;;;11.05;4.70;;;20.10;99.90;;;;;;5094350;28;20021;-71
2023/10/13 01:56:11;;;;;;;11.93;5.22;;;20.10;99.90;;;;;;5075610;28;20490;-71
2023/10/13 01:58:42;;;;;;;12.43;4.65;;;20.10;99.90;;;;;;5093819;28;20111;-71
2023/10/13 02:01:10;;;;;;;10.90;4.85;;;20.10;99.90;;;;;;5094301;28;20024;-72
2023/10/13 02:04:22;;;;;;;14.60;6.05;;;20.10;99.90;;;;;;5094004;28;20419;-71
2023/10/13 02:06:23;;;;;;;10.75;4.78;;;20.10;99.90;;;;;;5086146;28;20063;-71
2023/10/13 02:08:56;;;;;;;9.45;4.57;;;20.10;99.90;;;;;;5075574;28;20060;-72
2023/10/13 02:11:23;;;;;;;9.65;4.68;;;20.10;99.90;;;;;;5075630;28;20054;-71
2023/10/13 02:13:53;;;;;;;;;;;20.10;99.90;;;;;;5094215;28;20024;-71
2023/10/13 02:16:21;;;;;;;15.50;5.05;;;20.10;99.90;;;;;;5093717;28;19969;-72
2023/10/13 02:18:51;;;;;;;13.70;5.38;;;20.10;99.90;;;;;;5093731;28;20055;-72
2023/10/13 02:21:17;;;;;;;14.13;5.20;;;20.10;99.90;;;;;;5093505;28;20048;-72
2023/10/13 02:23:45;;;;;;;15.43;5.35;;;20.10;99.90;;;;;;5092278;28;20036;-72
2023/10/13 02:26:30;;;;;;;11.95;5.15;;;20.20;99.90;;;;;;5093690;28;20051;-71
2023/10/13 02:28:58;;;;;;;10.02;5.00;;;20.20;99.90;;;;;;5093529;28;20028;-71
2023/10/13 02:31:27;;;;;;;14.40;4.82;;;20.10;99.90;;;;;;5093570;28;20110;-71
2023/10/13 02:33:53;;;;;;;13.00;4.45;;;20.00;99.90;;;;;;5093432;28;20016;-71
2023/10/13 02:36:35;;;;;;;9.43;5.05;;;20.10;99.90;;;;;;5093256;28;20547;-71
2023/10/13 02:39:08;;;;;;;15.90;5.25;;;20.00;99.90;;;;;;5092466;28;20527;-71
2023/10/13 02:41:38;;;;;;;12.07;4.95;;;20.10;99.90;;;;;;5093495;28;20016;-71
2023/10/13 02:44:06;;;;;;;11.57;4.57;;;20.00;99.90;;;;;;5093841;28;20043;-72
2023/10/13 02:46:36;;;;;;;14.20;4.60;;;20.10;99.90;;;;;;5074607;28;20016;-72
2023/10/13 02:49:11;;;;;;;9.25;4.55;;;20.00;99.90;;;;;;5092861;28;20050;-72
2023/10/13 02:51:41;;;;;;;12.77;4.85;;;20.00;99.90;;;;;;5074647;28;20474;-72
2023/10/13 02:54:11;;;;;;;11.25;4.78;;;20.00;99.90;;;;;;5058567;28;20032;-72
2023/10/13 02:56:48;;;;;;;12.13;5.00;;;20.00;99.90;;;;;;5093296;28;20028;-71
2023/10/13 02:59:15;;;;;;;13.23;5.03;;;20.00;99.90;;;;;;5074579;28;20020;-71
2023/10/13 03:01:41;;;;;;;11.77;5.15;;;20.00;99.90;;;;;;5093298;28;20456;-73
2023/10/13 03:04:12;;;;;;;14.70;5.30;;;20.00;99.90;;;;;;5092863;28;20081;-72
2023/10/13 03:06:40;;;;;;;12.63;4.85;;;20.00;99.90;;;;;;5074823;28;20032;-71
2023/10/13 03:09:17;;;;;;;14.63;4.93;;;20.00;99.90;;;;;;5093684;28;20031;-72
2023/10/13 03:11:48;;;;;;;16.77;5.55;;;19.90;99.90;;;;;;5075154;28;20410;-71
2023/10/13 03:14:32;;;;;;;11.27;4.75;;;19.90;99.90;;;;;;5093407;28;20031;-71
2023/10/13 03:17:05;;;;;;;13.77;4.70;;;19.90;99.90;;;;;;5093564;28;20032;-72
2023/10/13 03:19:36;;;;;;;12.43;4.60;;;19.80;99.90;;;;;;5093414;28;20077;-72
2023/10/13 03:22:11;;;;;;;13.48;4.82;;;19.80;99.90;;;;;;5074838;28;20384;-72
2023/10/13 03:24:46;;;;;;;13.30;5.25;;;19.80;99.90;;;;;;5093420;28;20059;-72
2023/10/13 03:27:22;;;;;;;12.85;5.00;;;19.80;99.90;;;;;;5093617;28;20159;-72
2023/10/13 03:29:54;;;;;;;17.25;5.03;;;19.80;99.90;;;;;;5093573;28;20066;-71
2023/10/13 03:32:20;;;;;;;9.50;4.80;;;19.90;99.90;;;;;;5093977;28;20448;-71
2023/10/13 03:34:54;;;;;;;10.48;4.93;;;19.90;99.90;;;;;;5094023;28;20032;-71
2023/10/13 03:37:39;;;;;;;11.50;4.75;;;20.00;99.90;;;;;;5074873;28;20085;-72
2023/10/13 03:43:00;;;;;;;11.75;4.75;;;20.00;99.90;;;;;;5093369;28;20067;-71
2023/10/13 03:45:27;;;;;;;10.35;4.90;;;20.00;99.90;;;;;;5075124;28;20093;-72
2023/10/13 03:47:54;;;;;;;12.38;5.20;;;20.10;99.90;;;;;;5093382;28;20027;-73
2023/10/13 03:50:29;;;;;;;10.23;4.45;;;20.00;99.90;;;;;;5074614;28;20054;-72
2023/10/13 03:52:59;;;;;;;12.23;5.22;;;20.10;99.90;;;;;;5093204;28;20028;-72
2023/10/13 03:55:29;;;;;;;11.82;4.78;;;20.00;99.90;;;;;;5074675;28;20043;-71
2023/10/13 03:57:59;;;;;;;12.77;5.25;;;20.00;99.90;;;;;;5093400;28;20105;-71
2023/10/13 04:00:26;;;;;;;15.38;5.20;;;20.00;99.90;;;;;;5093110;28;20024;-72
2023/10/13 04:03:07;;;;;;;9.65;5.05;;;20.00;99.90;;;;;;5093043;28;20024;-70
2023/10/13 04:06:00;;;;;;;14.43;5.63;;;19.80;99.90;;;;;;5093154;28;20063;-71
2023/10/13 04:14:23;;;;;;;12.07;5.28;;;19.70;99.90;;;;;;5092870;28;20036;-71
2023/10/13 04:30:38;;;;;;;12.63;5.80;;;19.60;99.90;;;;;;5051106;28;20072;-72
2023/10/13 04:32:29;;;;;;;14.40;5.55;;;19.60;99.90;;;;;;5040538;28;20051;-72
2023/10/13 04:40:25;;;;;;;18.10;6.50;;;19.50;99.90;;;;;;5050859;28;20091;-71
2023/10/13 04:43:04;;;;;;;16.13;5.57;;;19.50;99.90;;;;;;5033991;28;20029;-71
2023/10/13 04:50:50;;;;;;;14.45;5.82;;;19.50;99.90;;;;;;5050833;28;20040;-71
2023/10/13 04:53:33;;;;;;;14.57;6.53;;;19.50;99.90;;;;;;5050736;28;20033;-71
2023/10/13 05:45:23;;;;;;;14.98;5.25;;;19.80;99.90;;;;;;5091937;28;20047;-72
2023/10/13 06:28:41;;;;;;;17.67;5.63;;;24.00;99.90;;;;;;5095088;28;20039;-72
2023/10/13 06:31:08;;;;;;;12.65;5.35;;;24.30;99.90;;;;;;5095057;28;20149;-73
2023/10/13 06:33:35;;;;;;;16.77;5.43;;;25.30;99.90;;;;;;5095164;28;20438;-71
2023/10/13 06:36:09;;;;;;;14.07;5.30;;;26.00;99.90;;;;;;5094105;28;20412;-71
2023/10/13 06:38:36;;;;;;;15.98;5.45;;;25.60;99.90;;;;;;5094642;28;20185;-71
2023/10/13 06:41:08;;;;;;;18.20;5.22;;;25.30;99.90;;;;;;5091784;28;20019;-71
2023/10/13 06:43:40;;;;;;;17.58;5.30;;;25.40;99.90;;;;;;5095199;28;20024;-73
2023/10/13 06:46:23;;;;;;;40.58;6.95;;;26.10;99.90;;;;;;5095240;28;20035;-73
2023/10/13 06:48:53;;;;;;;12.18;5.05;;;26.40;99.90;;;;;;5094902;28;20058;-74
2023/10/13 06:51:25;;;;;;;17.17;5.65;;;26.60;99.90;;;;;;5094329;28;20115;-73
2023/10/13 06:53:56;;;;;;;23.77;5.80;;;27.50;99.90;;;;;;5094653;28;20024;-74
2023/10/13 06:56:26;;;;;;;12.65;5.38;;;27.40;99.90;;;;;;5067725;28;20349;-75
2023/10/13 06:58:59;;;;;;;15.95;5.28;;;27.50;99.90;;;;;;5071633;28;20028;-75
2023/10/13 07:01:26;;;;;;;20.27;5.07;;;28.30;99.90;;;;;;5085621;28;20186;-76
2023/10/13 07:04:01;;;;;;;12.20;5.28;;;28.20;99.90;;;;;;5094296;28;20028;-72
2023/10/13 07:06:28;;;;;;;12.52;5.38;;;27.90;99.90;;;;;;5093603;28;20066;-73
2023/10/13 07:08:54;;;;;;;16.85;5.47;;;28.70;99.90;;;;;;5092958;28;20017;-73
2023/10/13 07:11:33;;;;;;;;;;;29.50;99.90;;;;;;5075553;28;20036;-72
2023/10/13 07:14:10;;;;;;;12.68;5.13;;;29.70;99.90;;;;;;5093560;28;19927;-72
2023/10/13 07:16:58;;;;;;;14.95;5.20;;;30.10;99.90;;;;;;5093532;28;20502;-71
2023/10/13 07:19:28;;;;;;;15.93;4.65;;;30.00;99.90;;;;;;5074978;28;20047;-73
2023/10/13 07:22:18;;;;;;;11.73;4.70;;;29.30;99.90;;;;;;5093362;28;20055;-72
2023/10/13 07:24:49;;;;;;;10.90;5.00;;;28.50;99.90;;;;;;5075245;28;20024;-72
2023/10/13 07:27:23;;;;;;;14.13;5.18;;;27.80;99.90;;;;;;5075950;28;20024;-72
2023/10/13 07:30:40;;;;;;;11.45;5.13;;;27.40;99.90;;;;;;5094451;28;20022;-73
2023/10/13 07:32:37;;;;;;;12.98;5.30;;;27.20;99.90;;;;;;5086417;28;20028;-73
2023/10/13 07:35:07;;;;;;;12.40;5.53;;;27.10;99.90;;;;;;5093871;28;20032;-71
2023/10/13 07:37:33;;;;;;;11.85;5.10;;;26.60;99.90;;;;;;5093524;28;20375;-72
2023/10/13 07:40:00;;;;;;;10.70;5.63;;;26.00;99.90;;;;;;5093594;28;20048;-73
2023/10/13 07:42:38;;;;;;;14.52;5.70;;;25.90;99.90;;;;;;5093622;28;20092;-72
2023/10/13 07:45:06;;;;;;;10.68;5.10;;;25.70;99.90;;;;;;5093946;28;20372;-72
2023/10/13 07:47:33;;;;;;;11.20;5.45;;;25.60;99.90;;;;;;5093646;28;20089;-71
2023/10/13 07:49:59;;;;;;;12.77;5.50;;;25.70;99.90;;;;;;5093167;28;20019;-73
2023/10/13 07:52:36;;;;;;;10.15;5.20;;;25.50;99.90;;;;;;5092614;28;20059;-72
2023/10/13 07:55:11;;;;;;;13.38;5.43;;;25.50;99.90;;;;;;5074688;28;20020;-72
2023/10/13 07:57:53;;;;;;;10.47;5.60;;;25.60;99.90;;;;;;5092848;28;20111;-72
2023/10/13 08:00:46;;;;;;;15.10;5.50;;;25.50;99.90;;;;;;5075411;28;20436;-73
2023/10/13 08:06:04;;;;;;;11.13;5.18;;;25.70;99.90;;;;;;5092763;28;20032;-72
2023/10/13 08:08:42;;;;;;;12.95;5.63;;;26.10;99.90;;;;;;5093431;28;20377;-72
2023/10/13 08:11:11;;;;;;;12.75;5.03;;;25.70;99.90;;;;;;5092786;28;20103;-72
2023/10/13 08:13:46;;;;;;;12.02;5.35;;;26.00;99.90;;;;;;5092798;28;20205;-73
2023/10/13 08:16:22;;;;;;;19.73;5.65;;;26.10;99.90;;;;;;5092851;28;20028;-73
2023/10/13 08:18:52;;;;;;;12.73;4.93;;;26.60;99.90;;;;;;5093186;28;20024;-71
2023/10/13 08:21:25;;;;;;;12.45;5.13;;;26.80;99.90;;;;;;5093123;28;20066;-72
2023/10/13 08:26:29;;;;;;;11.48;4.30;;;26.40;99.90;;;;;;5093065;28;20069;-72
2023/10/13 08:48:12;;;;;;;16.95;5.13;;;26.50;99.90;;;;;;5092514;28;20032;-71
2023/10/13 08:50:52;;;;;;;10.70;4.25;;;26.70;99.90;;;;;;5092291;28;20028;-72
2023/10/13 08:59:33;;;;;;;14.27;4.40;;;27.00;99.90;;;;;;5092521;28;20058;-72
2023/10/13 09:01:45;;;;;;;10.85;4.45;;;27.30;99.90;;;;;;5084459;28;20071;-72
2023/10/13 09:10:32;;;;;;;14.45;5.00;;;27.60;99.90;;;;;;5092089;28;20104;-72
2023/10/13 09:15:17;;;;;;;15.25;4.05;;;27.30;99.90;;;;;;5091994;28;20063;-72
2023/10/13 09:17:51;;;;;;;12.57;4.63;;;27.20;99.90;;;;;;5091982;28;20031;-74
2023/10/13 09:20:42;;;;;;;12.68;5.20;;;27.40;99.90;;;;;;5091768;28;20185;-72
2023/10/13 09:23:23;;;;;;;18.15;5.78;;;27.70;99.90;;;;;;5092005;28;20024;-73
2023/10/13 09:26:08;;;;;;;18.00;6.10;;;28.00;99.90;;;;;;5092528;28;20029;-74
2023/10/13 09:28:37;;;;;;;15.68;6.07;;;28.10;99.90;;;;;;5091761;28;20100;-73
2023/10/13 09:31:07;;;;;;;18.38;6.25;;;28.00;99.90;;;;;;5091575;28;20116;-72
2023/10/13 09:33:35;;;;;;;21.75;6.55;;;27.80;99.90;;;;;;5091972;28;20050;-73
2023/10/13 09:36:12;;;;;;;12.95;5.63;;;27.80;99.90;;;;;;5091715;28;20039;-73
2023/10/13 09:38:47;;;;;;;12.55;5.72;;;27.80;99.90;;;;;;5091726;28;20057;-71
2023/10/13 09:41:26;;;;;;;12.63;6.13;;;27.60;99.90;;;;;;5092453;28;20094;-73
2023/10/13 09:43:57;;;;;;;17.00;6.40;;;27.60;99.90;;;;;;5091665;28;20031;-74
2023/10/13 09:46:28;;;;;;;14.68;6.25;;;27.80;99.90;;;;;;5092195;28;20032;-72
2023/10/13 09:49:15;;;;;;;13.07;5.85;;;27.70;99.90;;;;;;5096020;28;20069;-73
2023/10/13 09:51:45;;;;;;;21.85;6.47;;;27.60;99.90;;;;;;5095101;28;20031;-72
2023/10/13 09:54:36;;;;;;;13.07;6.05;;;27.70;99.90;;;;;;5095712;28;20020;-71
2023/10/13 09:57:14;;;;;;;20.77;6.07;;;27.60;99.90;;;;;;5086292;28;20055;-71
2023/10/13 09:59:52;;;;;;;16.73;5.97;;;27.80;99.90;;;;;;5075363;28;20069;-71
2023/10/13 10:02:25;;;;;;;18.63;6.35;;;27.90;99.90;;;;;;5075185;28;20388;-72
2023/10/13 10:05:20;;;;;;;18.55;6.53;;;27.90;99.90;;;;;;5075181;28;20040;-72
2023/10/13 10:08:01;;;;;;;21.15;5.93;;;27.80;99.90;;;;;;5074835;28;20384;-72
2023/10/13 10:11:00;;;;;;;26.58;7.15;;;27.70;99.90;;;;;;5074653;28;20028;-73
2023/10/13 10:13:39;;;;;;;33.97;7.43;;;27.80;99.90;;;;;;5070934;28;20078;-72
2023/10/13 10:16:14;;;;;;;16.27;5.90;;;27.60;99.90;;;;;;5075073;28;20028;-72
2023/10/13 10:18:42;;;;;;;18.67;6.63;;;27.60;99.90;;;;;;5075029;28;20025;-73
2023/10/13 10:21:10;;;;;;;17.15;6.43;;;27.50;99.90;;;;;;5055836;28;20258;-72
2023/10/13 10:23:39;;;;;;;19.30;5.80;;;27.50;99.90;;;;;;5074706;28;20051;-73
2023/10/13 10:26:19;;;;;;;20.08;6.68;;;27.70;99.90;;;;;;5074525;28;20025;-72
2023/10/13 10:28:46;;;;;;;19.55;6.30;;;27.80;99.90;;;;;;5088511;28;20024;-71
2023/10/13 10:31:14;;;;;;;13.82;6.63;;;27.50;99.90;;;;;;5094864;28;20044;-72
2023/10/13 10:33:41;;;;;;;14.43;6.45;;;27.50;99.90;;;;;;5094584;28;20376;-73
2023/10/13 10:36:16;;;;;;;17.38;6.28;;;27.60;99.90;;;;;;5094246;28;20056;-74
2023/10/13 10:38:58;;;;;;;15.93;6.55;;;27.50;99.90;;;;;;5094228;28;20055;-72
2023/10/13 10:44:23;;;;;;;13.35;6.45;;;27.70;99.90;;;;;;5094076;28;20024;-76
2023/10/13 10:46:56;;;;;;;19.58;6.30;;;27.10;99.90;;;;;;5093920;28;20185;-72
2023/10/13 10:49:29;;;;;;;13.35;6.40;;;26.90;99.90;;;;;;5093784;28;20024;-72
2023/10/13 10:52:06;;;;;;;19.67;6.88;;;27.10;99.90;;;;;;5094006;28;20024;-73
2023/10/13 10:54:32;;;;;;;14.90;6.10;;;27.20;99.90;;;;;;5094812;28;20024;-72
2023/10/13 10:57:37;;;;;;;17.83;6.05;;;27.50;99.90;;;;;;5094264;28;20036;-72
2023/10/13 11:00:09;;;;;;;16.48;6.43;;;27.60;99.90;;;;;;5090850;28;20348;-74
2023/10/13 11:02:35;;;;;;;13.98;6.72;;;27.50;99.90;;;;;;5094043;28;20321;-72
2023/10/13 11:05:02;;;;;;;16.75;6.60;;;27.50;99.90;;;;;;5093948;28;20031;-73
2023/10/13 11:07:29;;;;;;;;;;;27.60;99.90;;;;;;5093845;28;20354;-74
2023/10/13 11:10:07;;;;;;;14.70;6.32;;;27.40;99.90;;;;;;5093642;28;20011;-73
2023/10/13 11:12:34;;;;;;;22.15;6.53;;;27.40;99.90;;;;;;5094332;28;20020;-73
2023/10/13 11:15:15;;;;;;;19.85;6.20;;;27.60;99.90;;;;;;5093063;28;20024;-73
2023/10/13 11:17:42;;;;;;;16.25;6.38;;;27.70;99.90;;;;;;5075270;28;20131;-73
2023/10/13 11:20:17;;;;;;;13.60;6.00;;;27.50;99.90;;;;;;5075192;28;20361;-73
2023/10/13 11:22:52;;;;;;;17.60;5.43;;;27.70;99.90;;;;;;5075961;28;20020;-73
2023/10/13 11:25:34;;;;;;;15.40;6.07;;;27.70;99.90;;;;;;5094073;28;20364;-73
2023/10/13 11:28:17;;;;;;;15.10;6.07;;;27.60;99.90;;;;;;5093913;28;20024;-72
2023/10/13 11:30:50;;;;;;;11.80;5.85;;;27.50;99.90;;;;;;5094445;28;20024;-73
2023/10/13 11:33:29;;;;;;;20.20;5.65;;;27.30;99.90;;;;;;5093881;28;20024;-72
2023/10/13 11:35:57;;;;;;;18.75;6.28;;;27.00;99.90;;;;;;5075359;28;20399;-73
2023/10/13 11:38:27;;;;;;;15.30;6.45;;;27.20;99.90;;;;;;5093595;28;20047;-73
2023/10/13 11:49:56;;;;;;;14.77;6.13;;;27.20;99.90;;;;;;5093602;28;20043;-72
2023/10/13 11:52:15;;;;;;;16.48;5.97;;;27.30;99.90;;;;;;5085286;28;20031;-73
2023/10/13 11:54:42;;;;;;;18.75;7.13;;;27.40;99.90;;;;;;5093103;28;20063;-73
2023/10/13 11:57:09;;;;;;;14.50;5.97;;;27.50;99.90;;;;;;5092844;28;20107;-73
2023/10/13 11:59:40;;;;;;;13.60;5.63;;;27.00;99.90;;;;;;5092928;28;20020;-71
2023/10/13 12:05:03;;;;;;;13.00;5.95;;;27.40;99.90;;;;;;5093133;28;20089;-73
2023/10/13 12:10:33;;;;;;;14.40;6.00;;;27.40;99.90;;;;;;5092822;28;20109;-71
2023/10/13 12:13:05;;;;;;;17.25;6.25;;;27.60;99.90;;;;;;5092710;28;20094;-73
2023/10/13 12:16:08;;;;;;;11.73;5.80;;;27.70;99.90;;;;;;5093540;28;20409;-73
2023/10/13 12:18:27;;;;;;;13.27;5.88;;;27.60;99.90;;;;;;5091502;28;20461;-72
2023/10/13 12:20:53;;;;;;;11.60;5.57;;;27.50;99.90;;;;;;5093970;28;20077;-72
2023/10/13 12:23:20;;;;;;;15.15;5.85;;;27.60;99.90;;;;;;5093504;28;20061;-72
2023/10/13 12:25:59;;;;;;;17.20;5.75;;;27.60;99.90;;;;;;5094015;28;20106;-73
2023/10/13 12:28:28;;;;;;;13.65;5.57;;;27.40;99.90;;;;;;5093675;28;20397;-71
2023/10/13 12:30:57;;;;;;;14.07;5.57;;;27.50;99.90;;;;;;5093507;28;20048;-72
2023/10/13 12:33:25;;;;;;;15.23;5.65;;;27.60;99.90;;;;;;5074868;28;20488;-72
2023/10/13 12:36:30;;;;;;;16.58;5.75;;;27.80;99.90;;;;;;5092925;28;20391;-72
2023/10/13 12:52:19;;;;;;;13.13;5.32;;;27.60;99.90;;;;;;5092659;28;20043;-71
2023/10/13 12:54:47;;;;;;;12.95;5.32;;;27.70;99.90;;;;;;5074741;28;20031;-72
2023/10/13 12:57:16;;;;;;;16.30;5.32;;;27.50;99.90;;;;;;5092971;28;20039;-71
2023/10/13 12:59:43;;;;;;;13.48;5.80;;;27.70;99.90;;;;;;5092629;28;20028;-71
2023/10/13 13:02:14;;;;;;;17.02;5.90;;;27.60;99.90;;;;;;5092821;28;20032;-71
2023/10/13 13:04:44;;;;;;;17.33;6.00;;;27.60;99.90;;;;;;5092636;28;20381;-71
2023/10/13 13:07:13;;;;;;;14.77;5.93;;;27.50;99.90;;;;;;5092363;28;20418;-72
2023/10/13 13:09:43;;;;;;;16.00;5.70;;;27.40;99.90;;;;;;5074801;28;20106;-71
2023/10/13 13:12:12;;;;;;;17.05;5.80;;;27.50;99.90;;;;;;5093266;28;20048;-72
2023/10/13 13:14:41;;;;;;;17.88;7.60;;;27.60;99.90;;;;;;5092763;28;20050;-72
2023/10/13 13:17:07;;;;;;;16.33;5.97;;;27.60;99.90;;;;;;5074481;28;20081;-72
2023/10/13 13:19:40;;;;;;;17.25;5.80;;;27.50;99.90;;;;;;5074956;28;20063;-72
2023/10/13 13:22:13;;;;;;;10.07;5.07;;;27.40;99.90;;;;;;5094563;28;20059;-72
2023/10/13 13:24:46;;;;;;;13.38;5.60;;;27.20;99.90;;;;;;5097590;28;20078;-72
2023/10/13 13:27:22;;;;;;;15.75;6.25;;;27.30;99.90;;;;;;5097186;28;20115;-71
2023/10/13 13:29:49;;;;;;;17.58;6.20;;;27.40;99.90;;;;;;5097899;28;20052;-72
2023/10/13 13:32:24;;;;;;;20.60;5.50;;;27.20;99.90;;;;;;5078686;28;20541;-70
2023/10/13 13:35:04;;;;;;;21.53;6.30;;;27.20;99.90;;;;;;5078869;28;20142;-72
2023/10/13 13:37:31;;;;;;;17.55;6.00;;;27.30;99.90;;;;;;5097013;28;20270;-72
2023/10/13 13:40:13;;;;;;;14.45;5.75;;;27.40;99.90;;;;;;5096579;28;20070;-72
2023/10/13 13:42:40;;;;;;;15.32;5.72;;;27.30;99.90;;;;;;5096812;28;20050;-72
2023/10/13 13:45:22;;;;;;;15.32;6.05;;;27.30;99.90;;;;;;5097269;28;20027;-72
2023/10/13 13:47:55;;;;;;;16.08;6.95;;;27.20;99.90;;;;;;5078395;28;20368;-72
2023/10/13 13:50:29;;;;;;;19.52;6.95;;;27.20;99.90;;;;;;5096900;28;20484;-72
2023/10/13 13:52:58;;;;;;;19.70;7.90;;;26.90;99.90;;;;;;5078086;28;20032;-72
2023/10/13 13:55:28;;;;;;;19.75;7.50;;;27.00;99.90;;;;;;5096219;28;20028;-72
2023/10/13 13:57:57;;;;;;;19.63;7.43;;;27.00;99.90;;;;;;5095715;28;20032;-71
2023/10/13 14:00:37;;;;;;;14.73;6.97;;;27.10;99.90;;;;;;5096303;28;20024;-72
2023/10/13 14:03:12;;;;;;;17.63;7.60;;;27.20;99.90;;;;;;5096386;28;20016;-72
2023/10/13 14:05:45;;;;;;;18.88;7.07;;;27.00;99.90;;;;;;5096459;28;20032;-72
2023/10/13 14:08:15;;;;;;;18.52;6.63;;;26.90;99.90;;;;;;5095980;28;20207;-72
2023/10/13 14:13:48;;;;;;;18.00;6.40;;;27.20;99.90;;;;;;5096613;28;20035;-71
2023/10/13 14:16:16;;;;;;;;;;;27.10;99.90;;;;;;5096176;28;20048;-73
2023/10/13 14:18:48;;;;;;;17.77;7.07;;;27.10;99.90;;;;;;5095845;28;20210;-72
2023/10/13 14:21:18;;;;;;;16.65;6.47;;;27.00;99.90;;;;;;5096217;28;20035;-72
2023/10/13 14:23:48;;;;;;;15.77;7.10;;;26.80;99.90;;;;;;5096569;28;20020;-72
2023/10/13 14:26:21;;;;;;;16.90;6.57;;;26.80;99.90;;;;;;5096344;28;20096;-74
2023/10/13 14:29:09;;;;;;;21.52;7.20;;;26.80;99.90;;;;;;5095887;28;20024;-71
2023/10/13 14:31:42;;;;;;;16.00;6.90;;;26.70;99.90;;;;;;5077355;28;20039;-71
2023/10/13 14:34:08;;;;;;;18.30;8.70;;;26.50;99.90;;;;;;5096191;28;20031;-72
2023/10/13 14:36:37;;;;;;;21.48;8.60;;;26.50;99.90;;;;;;5095823;28;20067;-71
2023/10/13 14:39:11;;;;;;;17.13;6.22;;;26.60;99.90;;;;;;5095229;28;20048;-71
2023/10/13 14:41:37;;;;;;;19.27;7.70;;;26.50;99.90;;;;;;5095350;28;20024;-71
2023/10/13 14:44:05;;;;;;;44.65;14.82;;;26.40;99.90;;;;;;5095108;28;20024;-71
2023/10/13 14:46:31;;;;;;;;;;;26.00;99.90;;;;;;5095824;28;20031;-73
2023/10/13 14:49:00;;;;;;;21.38;8.65;;;26.00;99.90;;;;;;5095057;28;19904;-71
2023/10/13 14:51:28;;;;;;;30.35;9.23;;;25.90;99.90;;;;;;5094592;28;20102;-72
2023/10/13 14:53:56;;;;;;;20.58;9.05;;;26.00;99.90;;;;;;5076544;28;20436;-71
2023/10/13 14:56:26;;;;;;;18.52;6.53;;;26.10;99.90;;;;;;5094713;28;20492;-71
2023/10/13 14:58:53;;;;;;;16.55;7.80;;;26.00;99.90;;;;;;5094571;28;20436;-70
2023/10/13 15:01:26;;;;;;;17.25;6.50;;;26.10;99.90;;;;;;5095130;28;20025;-71
2023/10/13 15:03:57;;;;;;;21.13;10.65;;;26.00;99.90;;;;;;5094279;28;20411;-70
2023/10/13 15:06:25;;;;;;;18.95;6.55;;;26.00;99.90;;;;;;5093581;28;20481;-71
2023/10/13 15:08:54;;;;;;;15.93;7.88;;;26.00;99.90;;;;;;5093731;28;20111;-71
2023/10/13 15:11:22;;;;;;;15.50;6.85;;;26.00;99.90;;;;;;5094431;28;20087;-71
2023/10/13 15:13:51;;;;;;;18.98;8.68;;;25.90;99.90;;;;;;5094031;28;20031;-70
2023/10/13 15:16:26;;;;;;;23.00;9.60;;;25.90;99.90;;;;;;5075715;28;20082;-71
2023/10/13 15:18:53;;;;;;;17.83;6.97;;;25.80;99.90;;;;;;5094791;28;20483;-72
2023/10/13 15:21:30;;;;;;;15.10;7.07;;;25.90;99.90;;;;;;5076026;28;20118;-71
2023/10/13 15:24:03;;;;;;;18.48;6.25;;;25.70;99.90;;;;;;5094733;28;20030;-71
2023/10/13 15:26:30;;;;;;;16.60;6.40;;;25.70;99.90;;;;;;5094756;28;20035;-70
2023/10/13 15:28:57;;;;;;;16.98;6.57;;;25.70;99.90;;;;;;5094253;28;20027;-71
2023/10/13 15:31:37;;;;;;;14.35;5.50;;;25.70;99.90;;;;;;5094213;28;20047;-72
2023/10/13 15:34:06;;;;;;;15.82;5.75;;;25.60;99.90;;;;;;5093984;28;20020;-69
2023/10/13 15:36:34;;;;;;;17.67;6.50;;;25.60;99.90;;;;;;5093775;28;20090;-72
2023/10/13 15:39:00;;;;;;;14.48;6.35;;;25.70;99.90;;;;;;5072322;28;20373;-72
2023/10/13 15:41:28;;;;;;;13.35;5.72;;;25.60;99.90;;;;;;5072350;28;20036;-71
2023/10/13 15:43:55;;;;;;;14.23;6.13;;;25.60;99.90;;;;;;5073460;28;20117;-71
2023/10/13 15:46:22;;;;;;;15.32;6.00;;;25.50;99.90;;;;;;5073521;28;20056;-71
2023/10/13 15:48:50;;;;;;;15.02;5.88;;;25.50;99.90;;;;;;5072023;28;20114;-71
2023/10/13 15:51:16;;;;;;;16.73;6.75;;;25.50;99.90;;;;;;5073504;28;20025;-73
2023/10/13 15:53:44;;;;;;;;;;;25.40;99.90;;;;;;5073842;28;20024;-71
2023/10/13 15:56:14;;;;;;;16.25;6.93;;;25.30;99.90;;;;;;5073389;28;20363;-72
2023/10/13 15:58:43;;;;;;;17.83;7.53;;;25.10;99.90;;;;;;5073497;28;20022;-71
2023/10/13 16:01:13;;;;;;;18.73;7.72;;;25.00;99.90;;;;;;5073533;28;20035;-72
2023/10/13 16:03:43;;;;;;;15.57;6.43;;;24.90;99.90;;;;;;5073369;28;20182;-72
2023/10/13 16:06:13;;;;;;;28.73;20.13;;;24.80;99.90;;;;;;5073110;28;20082;-72
2023/10/13 16:08:43;;;;;;;17.83;7.93;;;24.90;99.90;;;;;;5072938;28;20025;-72
2023/10/13 16:11:14;;;;;;;18.63;7.53;;;24.80;99.90;;;;;;5073178;28;20028;-72
2023/10/13 16:13:42;;;;;;;15.55;6.63;;;24.80;99.90;;;;;;5073138;28;20012;-71
2023/10/13 16:16:29;;;;;;;16.88;6.90;;;24.80;99.90;;;;;;5071581;28;20043;-71
2023/10/13 16:18:55;;;;;;;17.15;7.47;;;24.60;99.90;;;;;;5073468;28;20032;-71
2023/10/13 16:21:21;;;;;;;17.50;7.07;;;24.40;99.90;;;;;;5071735;28;20353;-72
2023/10/13 16:23:48;;;;;;;18.27;7.63;;;24.30;99.90;;;;;;5071666;28;20025;-71